Armada, Michigan
Current Conditions -  °F | °C
As of 10:55 AM on Tuesday 21 Oct 2014 (Local Time) from KMTC Reporting Station
Overcast Overcast  
Wind Chill: 39°   Ceiling: 1800
Heat Index: 47°   Visibility: 12mi
Dew Point: 42°   Wind: 18mph
Humidity: 84%   Direction: 350°N
Pressure: 29.99"   Gusts: 23mph
Location:  42.84°N, 82.88°W
Report Text: KMTC 211455Z 35016G20KT 12SM BKN018 OVC025 08/06 A2999 RMK SLP164 60000 T00810056 52022
Loading
Personal Weather Stations






























Interactive Weather Map
Tropical Storm Tracking
New forecast layout! Learn more

10-Day Weather Forecast

Advertisements
Track Severe Weather on mobile